createdAt,value
2023-05-17T00:00:36.702Z,4.25
2023-05-17T00:03:04.523Z,4.60
2023-05-17T00:05:32.473Z,4.00
2023-05-17T00:08:05.825Z,4.03
2023-05-17T00:13:16.654Z,4.28
2023-05-17T00:18:27.154Z,3.63
2023-05-17T00:20:55.748Z,4.30
2023-05-17T00:23:23.659Z,3.38
2023-05-17T00:25:51.696Z,3.78
2023-05-17T00:28:19.516Z,3.90
2023-05-17T00:30:49.780Z,4.30
2023-05-17T00:33:17.435Z,4.45
2023-05-17T00:35:45.223Z,4.03
2023-05-17T00:38:13.092Z,4.20
2023-05-17T00:40:41.477Z,4.40
2023-05-17T00:43:12.102Z,4.45
2023-05-17T00:45:40.244Z,3.90
2023-05-17T00:48:11.239Z,3.40
2023-05-17T00:50:39.500Z,3.75
2023-05-17T00:53:07.253Z,3.92
2023-05-17T00:55:35.111Z,3.83
2023-05-17T00:58:03.130Z,3.60
2023-05-17T01:00:31.920Z,3.92
2023-05-17T01:03:00.251Z,3.92
2023-05-17T01:05:29.333Z,4.13
2023-05-17T01:07:59.932Z,5.07
2023-05-17T01:10:37.405Z,5.40
2023-05-17T01:13:28.485Z,4.47
2023-05-17T01:16:18.584Z,4.70
2023-05-17T01:18:53.183Z,4.28
2023-05-17T01:21:45.252Z,4.32
2023-05-17T01:24:29.249Z,4.38
2023-05-17T01:26:57.732Z,4.40
2023-05-17T01:29:27.533Z,4.55
2023-05-17T01:31:55.126Z,3.83
2023-05-17T01:34:29.640Z,3.80
2023-05-17T01:36:59.019Z,4.15
2023-05-17T01:39:27.263Z,4.30
2023-05-17T01:42:08.919Z,5.18
2023-05-17T01:44:48.455Z,4.32
2023-05-17T01:47:30.237Z,4.45
2023-05-17T01:50:00.583Z,4.40
2023-05-17T01:52:32.652Z,4.45
2023-05-17T01:55:20.700Z,4.25
2023-05-17T01:57:50.403Z,4.13
2023-05-17T02:00:19.392Z,4.25
2023-05-17T02:02:49.540Z,4.50
2023-05-17T02:05:18.285Z,4.68
2023-05-17T02:07:45.988Z,4.53
2023-05-17T02:10:14.106Z,4.13
2023-05-17T02:12:41.909Z,4.00
2023-05-17T02:15:12.434Z,4.10
2023-05-17T02:17:41.248Z,4.13
2023-05-17T02:20:09.830Z,4.70
2023-05-17T02:22:37.708Z,4.65
2023-05-17T02:25:06.443Z,4.10
2023-05-17T02:27:34.833Z,4.10
2023-05-17T02:30:02.707Z,3.70
2023-05-17T02:32:30.475Z,3.28
2023-05-17T02:34:59.382Z,4.35
2023-05-17T02:37:27.513Z,4.07
2023-05-17T02:39:55.367Z,4.97
2023-05-17T02:42:23.095Z,3.95
2023-05-17T02:44:53.285Z,5.25
2023-05-17T02:47:23.747Z,4.90
2023-05-17T02:49:52.998Z,5.22
2023-05-17T02:52:20.985Z,5.10
2023-05-17T02:54:48.769Z,5.68
2023-05-17T02:57:16.425Z,5.30
2023-05-17T02:59:44.775Z,4.85
2023-05-17T03:02:14.143Z,4.78
2023-05-17T03:04:41.676Z,5.00
2023-05-17T03:07:09.834Z,4.82
2023-05-17T03:09:38.056Z,4.30
2023-05-17T03:12:06.761Z,4.35
2023-05-17T03:14:34.694Z,3.70
2023-05-17T03:17:02.409Z,4.38
2023-05-17T03:19:30.090Z,4.13
2023-05-17T03:21:58.709Z,3.97
2023-05-17T03:24:26.896Z,4.35
2023-05-17T03:26:55.081Z,4.75
2023-05-17T03:29:22.664Z,3.50
2023-05-17T03:31:51.095Z,4.10
2023-05-17T03:34:21.193Z,3.65
2023-05-17T03:36:51.994Z,3.50
2023-05-17T03:39:19.775Z,3.70
2023-05-17T03:41:47.586Z,3.00
2023-05-17T03:44:15.963Z,2.83
2023-05-17T03:46:43.636Z,2.83
2023-05-17T03:49:11.720Z,2.72
2023-05-17T03:51:39.590Z,3.20
2023-05-17T03:54:07.369Z,3.13
2023-05-17T03:56:35.125Z,2.80
2023-05-17T03:59:02.962Z,2.88
2023-05-17T04:01:31.021Z,2.50
2023-05-17T04:04:01.707Z,2.60
2023-05-17T04:06:29.910Z,2.70
2023-05-17T04:09:00.176Z,2.67
2023-05-17T04:11:28.262Z,2.25
2023-05-17T04:13:58.355Z,2.78
2023-05-17T04:16:28.775Z,2.28
2023-05-17T04:18:59.937Z,2.20
2023-05-17T04:21:32.843Z,2.80
2023-05-17T04:24:00.523Z,2.50
2023-05-17T04:26:28.445Z,2.28
2023-05-17T04:28:58.907Z,2.55
2023-05-17T04:31:26.638Z,1.90
2023-05-17T04:33:53.665Z,2.58
2023-05-17T04:36:20.732Z,2.22
2023-05-17T04:38:47.791Z,2.22
2023-05-17T04:41:14.800Z,2.70
2023-05-17T04:43:42.296Z,2.83
2023-05-17T04:46:09.862Z,2.80
2023-05-17T04:48:37.112Z,2.80
2023-05-17T04:51:04.667Z,2.78
2023-05-17T04:53:32.016Z,2.80
2023-05-17T04:55:59.164Z,3.13
2023-05-17T04:58:26.208Z,3.20
2023-05-17T05:00:53.241Z,3.53
2023-05-17T05:03:20.308Z,2.58
2023-05-17T05:05:47.513Z,2.40
2023-05-17T05:08:17.080Z,2.67
2023-05-17T05:10:44.368Z,2.42
2023-05-17T05:13:11.716Z,2.60
2023-05-17T05:15:38.639Z,2.42
2023-05-17T05:18:06.206Z,2.63
2023-05-17T05:20:33.196Z,2.47
2023-05-17T05:23:01.192Z,2.08
2023-05-17T05:25:30.265Z,2.40
2023-05-17T05:27:57.530Z,2.58
2023-05-17T05:30:24.718Z,2.35
2023-05-17T05:32:55.692Z,2.33
2023-05-17T05:35:30.662Z,2.53
2023-05-17T05:37:58.763Z,2.40
2023-05-17T05:40:26.206Z,2.20
2023-05-17T05:42:53.596Z,2.88
2023-05-17T05:45:21.845Z,2.65
2023-05-17T05:47:49.006Z,2.30
2023-05-17T05:50:16.452Z,2.30
2023-05-17T05:52:43.402Z,2.22
2023-05-17T05:55:10.652Z,2.92
2023-05-17T05:57:39.585Z,2.80
2023-05-17T06:00:07.614Z,2.72
2023-05-17T06:02:35.018Z,2.70
2023-05-17T06:05:04.020Z,2.40
2023-05-17T06:07:31.596Z,2.85
2023-05-17T06:09:58.590Z,3.30
2023-05-17T06:12:25.632Z,2.83
2023-05-17T06:14:52.546Z,2.40
2023-05-17T06:17:21.539Z,2.97
2023-05-17T06:19:49.564Z,3.30
2023-05-17T06:22:16.684Z,3.20
2023-05-17T06:24:46.263Z,3.65
2023-05-17T06:27:13.342Z,3.38
2023-05-17T06:29:40.786Z,3.20
2023-05-17T06:32:07.939Z,3.28
2023-05-17T06:34:34.904Z,3.08
2023-05-17T06:37:01.871Z,3.25
2023-05-17T06:39:28.978Z,2.85
2023-05-17T06:41:56.186Z,3.10
2023-05-17T06:44:23.428Z,3.80
2023-05-17T06:46:50.335Z,3.13
2023-05-17T06:49:20.119Z,3.13
2023-05-17T06:51:50.510Z,3.13
2023-05-17T06:54:19.771Z,3.13
2023-05-17T06:56:46.816Z,3.38
2023-05-17T06:59:14.108Z,3.55
2023-05-17T07:01:41.197Z,3.97
2023-05-17T07:04:08.492Z,3.55
2023-05-17T07:06:36.158Z,3.83
2023-05-17T07:09:07.331Z,3.22
2023-05-17T07:11:34.520Z,3.50
2023-05-17T07:14:01.893Z,3.75
2023-05-17T07:16:28.913Z,4.25
2023-05-17T07:18:57.149Z,3.08
2023-05-17T07:21:24.806Z,3.55
2023-05-17T07:23:52.155Z,3.65
2023-05-17T07:26:20.198Z,3.53
2023-05-17T07:28:48.026Z,3.88
2023-05-17T07:31:15.789Z,3.65
2023-05-17T07:33:42.897Z,3.45
2023-05-17T07:36:10.371Z,3.90
2023-05-17T07:38:37.596Z,3.70
2023-05-17T07:41:09.957Z,4.22
2023-05-17T07:43:38.164Z,3.88
2023-05-17T07:46:05.852Z,3.80
2023-05-17T07:48:32.926Z,3.50
2023-05-17T07:51:00.067Z,3.75
2023-05-17T07:53:27.132Z,3.90
2023-05-17T07:55:54.250Z,3.53
2023-05-17T07:58:21.300Z,3.55
2023-05-17T08:00:49.538Z,3.70
2023-05-17T08:03:17.518Z,3.72
2023-05-17T08:05:44.870Z,3.20
2023-05-17T08:08:11.904Z,4.10
2023-05-17T08:10:39.663Z,4.03
2023-05-17T08:13:09.892Z,3.28
2023-05-17T08:15:39.787Z,3.28
2023-05-17T08:18:07.061Z,3.15
2023-05-17T08:20:34.109Z,3.50
2023-05-17T08:23:04.186Z,3.95
2023-05-17T08:25:31.725Z,3.30
2023-05-17T08:27:58.963Z,3.50
2023-05-17T08:30:29.305Z,3.22
2023-05-17T08:32:56.976Z,3.28
2023-05-17T08:35:28.584Z,3.53
2023-05-17T08:37:56.755Z,3.13
2023-05-17T08:40:23.980Z,3.38
2023-05-17T08:42:51.593Z,3.13
2023-05-17T08:45:19.262Z,3.70
2023-05-17T08:47:46.925Z,3.22
2023-05-17T08:50:14.500Z,3.67
2023-05-17T08:52:42.872Z,3.17
2023-05-17T08:55:10.212Z,3.65
2023-05-17T08:57:38.261Z,3.00
2023-05-17T09:00:30.439Z,3.38
2023-05-17T09:02:58.035Z,3.45
2023-05-17T09:05:26.516Z,3.75
2023-05-17T09:07:54.549Z,4.45
2023-05-17T09:10:22.064Z,3.50
2023-05-17T09:12:49.445Z,3.63
2023-05-17T09:15:24.441Z,3.20
2023-05-17T09:17:55.721Z,3.47
2023-05-17T09:20:35.498Z,4.35
2023-05-17T09:23:07.347Z,4.07
2023-05-17T09:25:38.081Z,3.22
2023-05-17T09:28:10.139Z,3.70
2023-05-17T09:30:39.774Z,3.23
2023-05-17T09:33:07.744Z,3.42
2023-05-17T09:35:36.285Z,3.10
2023-05-17T09:38:13.032Z,3.17
2023-05-17T09:40:40.523Z,3.42
2023-05-17T09:43:08.133Z,3.35
2023-05-17T09:45:36.379Z,3.30
2023-05-17T09:48:17.476Z,3.38
2023-05-17T09:50:54.085Z,3.28
2023-05-17T09:53:29.550Z,2.90
2023-05-17T09:55:58.931Z,3.70
2023-05-17T09:58:27.574Z,3.55
2023-05-17T10:01:02.243Z,3.17
2023-05-17T10:03:34.717Z,2.95
2023-05-17T10:06:06.616Z,2.90
2023-05-17T10:08:34.412Z,2.90
2023-05-17T10:11:13.679Z,3.15
2023-05-17T10:14:23.029Z,3.20
2023-05-17T10:16:51.991Z,3.55
2023-05-17T10:19:21.309Z,3.00
2023-05-17T10:21:52.585Z,3.22
2023-05-17T10:24:24.206Z,3.28
2023-05-17T10:26:51.848Z,3.03
2023-05-17T10:29:21.500Z,2.85
2023-05-17T10:31:51.437Z,2.70
2023-05-17T10:34:19.843Z,2.72
2023-05-17T10:36:48.018Z,3.08
2023-05-17T10:39:15.238Z,3.38
2023-05-17T10:41:44.550Z,3.30
2023-05-17T10:44:14.324Z,2.72
2023-05-17T10:46:41.479Z,3.33
2023-05-17T10:49:08.827Z,3.42
2023-05-17T10:51:38.104Z,3.60
2023-05-17T10:54:12.684Z,3.17
2023-05-17T10:56:42.070Z,2.78
2023-05-17T10:59:29.857Z,3.28
2023-05-17T11:02:07.003Z,3.60
2023-05-17T11:04:42.301Z,3.25
2023-05-17T11:07:28.029Z,3.45
2023-05-17T11:10:10.535Z,3.13
2023-05-17T11:12:43.211Z,3.30
2023-05-17T11:15:12.540Z,3.05
2023-05-17T11:17:54.788Z,3.28
2023-05-17T11:20:28.347Z,3.20
2023-05-17T11:23:02.550Z,3.42
2023-05-17T11:25:31.943Z,3.63
2023-05-17T11:27:59.950Z,2.70
2023-05-17T11:30:32.238Z,2.75
2023-05-17T11:33:02.550Z,3.90
2023-05-17T11:35:33.330Z,3.17
2023-05-17T11:38:16.967Z,3.20
2023-05-17T11:40:48.794Z,4.07
2023-05-17T11:43:18.084Z,3.90
2023-05-17T11:45:52.927Z,3.45
2023-05-17T11:48:25.494Z,3.05
2023-05-17T11:50:54.570Z,3.10
2023-05-17T11:53:22.079Z,3.00
2023-05-17T11:55:51.115Z,3.33
2023-05-17T11:58:26.332Z,3.75
2023-05-17T12:00:55.658Z,2.90
2023-05-17T12:03:26.667Z,3.40
2023-05-17T12:06:06.895Z,3.58
2023-05-17T12:08:39.308Z,3.45
2023-05-17T12:11:08.193Z,2.90
2023-05-17T12:13:36.264Z,3.67
2023-05-17T12:16:07.195Z,3.33
2023-05-17T12:18:42.923Z,3.15
2023-05-17T12:21:13.424Z,4.00
2023-05-17T12:23:43.822Z,3.15
2023-05-17T12:26:15.931Z,3.22
2023-05-17T12:31:17.525Z,2.75
2023-05-17T12:33:45.446Z,2.88
2023-05-17T12:36:13.769Z,3.63
2023-05-17T12:38:42.163Z,2.85
2023-05-17T12:41:11.987Z,2.85
2023-05-17T12:43:40.717Z,3.20
2023-05-17T12:46:09.722Z,3.28
2023-05-17T12:48:38.507Z,3.05
2023-05-17T12:51:12.697Z,2.90
2023-05-17T12:53:52.808Z,2.50
2023-05-17T12:56:24.963Z,2.70
2023-05-17T12:59:29.402Z,2.58
2023-05-17T13:01:57.800Z,2.80
2023-05-17T13:04:34.465Z,2.22
2023-05-17T13:07:03.579Z,3.22
2023-05-17T13:09:32.275Z,2.60
2023-05-17T13:12:01.280Z,1.92
2023-05-17T13:14:48.468Z,2.05
2023-05-17T13:17:26.797Z,2.40
2023-05-17T13:19:57.375Z,2.35
2023-05-17T13:22:25.520Z,1.95
2023-05-17T13:24:53.036Z,2.13
2023-05-17T13:27:22.701Z,1.90
2023-05-17T13:29:52.419Z,2.33
2023-05-17T13:32:21.035Z,2.50
2023-05-17T13:34:48.478Z,2.28
2023-05-17T13:37:15.676Z,2.20
2023-05-17T13:39:42.828Z,2.10
2023-05-17T13:42:11.244Z,2.33
2023-05-17T13:44:39.149Z,2.40
2023-05-17T13:47:06.991Z,2.30
2023-05-17T13:49:34.101Z,2.30
2023-05-17T13:52:01.287Z,3.00
2023-05-17T13:54:28.448Z,2.08
2023-05-17T13:56:57.703Z,3.10
2023-05-17T13:59:24.835Z,2.90
2023-05-17T14:01:52.057Z,2.60
2023-05-17T14:04:20.241Z,2.58
2023-05-17T14:06:49.479Z,2.45
2023-05-17T14:09:17.757Z,2.30
2023-05-17T14:11:45.060Z,2.22
2023-05-17T14:14:12.209Z,2.65
2023-05-17T14:16:39.527Z,2.60
2023-05-17T14:19:06.580Z,2.83
2023-05-17T14:21:34.162Z,2.45
2023-05-17T14:24:01.638Z,2.42
2023-05-17T14:26:28.759Z,2.90
2023-05-17T14:28:56.119Z,2.25
2023-05-17T14:31:23.819Z,2.33
2023-05-17T14:33:51.793Z,3.28
2023-05-17T14:36:19.057Z,2.20
2023-05-17T14:38:46.539Z,2.47
2023-05-17T14:41:13.713Z,2.00
2023-05-17T14:43:44.271Z,2.42
2023-05-17T14:46:11.598Z,1.95
2023-05-17T14:48:39.024Z,2.92
2023-05-17T14:51:07.236Z,2.03
2023-05-17T14:53:36.846Z,2.80
2023-05-17T14:56:05.067Z,2.20
2023-05-17T14:58:32.218Z,2.80
2023-05-17T15:01:05.593Z,2.00
2023-05-17T15:03:37.064Z,1.88
2023-05-17T15:06:06.912Z,2.00
2023-05-17T15:08:35.432Z,2.33
2023-05-17T15:11:04.360Z,4.30
2023-05-17T15:13:32.314Z,12.93
2023-05-17T15:16:03.247Z,3.20
2023-05-17T15:18:30.264Z,2.88
2023-05-17T15:20:58.131Z,3.00
2023-05-17T15:23:25.255Z,2.97
2023-05-17T15:25:52.486Z,2.42
2023-05-17T15:28:21.050Z,2.20
2023-05-17T15:30:48.184Z,2.03
2023-05-17T15:33:18.092Z,2.33
2023-05-17T15:35:45.707Z,1.88
2023-05-17T15:38:12.736Z,2.42
2023-05-17T15:40:39.730Z,2.00
2023-05-17T15:43:06.791Z,2.47
2023-05-17T15:45:34.166Z,2.70
2023-05-17T15:48:02.275Z,2.65
2023-05-17T15:50:30.155Z,3.10
2023-05-17T15:52:58.918Z,2.22
2023-05-17T15:55:27.296Z,2.88
2023-05-17T15:57:54.588Z,2.95
2023-05-17T16:00:22.026Z,2.47
2023-05-17T16:02:49.267Z,2.30
2023-05-17T16:05:16.677Z,2.83
2023-05-17T16:07:43.972Z,2.33
2023-05-17T16:10:11.510Z,2.00
2023-05-17T16:12:38.544Z,2.25
2023-05-17T16:15:06.457Z,2.28
2023-05-17T16:17:33.846Z,2.65
2023-05-17T16:20:01.281Z,2.00
2023-05-17T16:22:29.438Z,1.73
2023-05-17T16:24:57.491Z,2.25
2023-05-17T16:27:25.023Z,2.35
2023-05-17T16:29:52.266Z,1.92
2023-05-17T16:32:19.412Z,1.88
2023-05-17T16:34:46.914Z,1.67
2023-05-17T16:37:14.009Z,2.03
2023-05-17T16:39:41.751Z,1.75
2023-05-17T16:42:08.838Z,2.08
2023-05-17T16:44:39.011Z,2.15
2023-05-17T16:47:07.329Z,2.30
2023-05-17T16:49:36.880Z,2.70
2023-05-17T16:52:04.573Z,2.50
2023-05-17T16:54:33.787Z,2.28
2023-05-17T16:57:01.868Z,2.13
2023-05-17T16:59:28.939Z,1.92
2023-05-17T17:01:56.151Z,2.53
2023-05-17T17:04:23.688Z,2.50
2023-05-17T17:06:51.886Z,2.60
2023-05-17T17:09:19.117Z,2.40
2023-05-17T17:11:46.840Z,2.05
2023-05-17T17:14:14.011Z,2.28
2023-05-17T17:16:43.148Z,2.72
2023-05-17T17:19:11.077Z,1.92
2023-05-17T17:21:38.245Z,2.20
2023-05-17T17:24:06.271Z,1.85
2023-05-17T17:26:35.567Z,2.08
2023-05-17T17:29:04.259Z,2.00
2023-05-17T17:31:32.357Z,2.50
2023-05-17T17:33:59.578Z,2.60
2023-05-17T17:36:26.697Z,3.45
2023-05-17T17:38:53.787Z,2.25
2023-05-17T17:41:21.401Z,2.85
2023-05-17T17:43:49.494Z,2.15
2023-05-17T17:46:16.781Z,2.60
2023-05-17T17:48:43.922Z,2.90
2023-05-17T17:51:11.125Z,2.80
2023-05-17T17:53:39.557Z,2.92
2023-05-17T17:56:07.637Z,3.00
2023-05-17T17:58:34.698Z,3.05
2023-05-17T18:01:02.137Z,2.70
2023-05-17T18:03:29.276Z,2.72
2023-05-17T18:05:56.430Z,2.13
2023-05-17T18:08:23.586Z,2.65
2023-05-17T18:10:50.786Z,2.65
2023-05-17T18:13:17.941Z,2.42
2023-05-17T18:15:45.747Z,2.20
2023-05-17T18:18:16.314Z,2.13
2023-05-17T18:20:43.855Z,2.55
2023-05-17T18:23:11.888Z,2.80
2023-05-17T18:25:39.888Z,2.45
2023-05-17T18:28:08.977Z,6.30
2023-05-17T18:30:36.741Z,2.92
2023-05-17T18:33:04.204Z,2.47
2023-05-17T18:35:31.405Z,2.83
2023-05-17T18:38:00.806Z,3.10
2023-05-17T18:40:32.458Z,2.13
2023-05-17T18:42:59.921Z,2.78
2023-05-17T18:45:27.154Z,2.72
2023-05-17T18:47:54.254Z,2.58
2023-05-17T18:50:21.605Z,3.65
2023-05-17T18:52:49.090Z,2.72
2023-05-17T18:55:16.396Z,3.03
2023-05-17T18:57:44.725Z,3.05
2023-05-17T19:00:12.342Z,2.65
2023-05-17T19:02:40.211Z,2.60
2023-05-17T19:05:08.059Z,3.47
2023-05-17T19:07:35.303Z,2.72
2023-05-17T19:10:04.652Z,3.63
2023-05-17T19:12:31.900Z,2.97
2023-05-17T19:14:59.464Z,2.72
2023-05-17T19:17:31.811Z,2.80
2023-05-17T19:20:02.658Z,3.35
2023-05-17T19:22:29.873Z,3.38
2023-05-17T19:25:00.288Z,2.65
2023-05-17T19:27:27.754Z,2.88
2023-05-17T19:29:56.275Z,2.70
2023-05-17T19:32:23.416Z,2.67
2023-05-17T19:34:53.005Z,2.55
2023-05-17T19:37:20.153Z,2.40
2023-05-17T19:39:48.884Z,2.10
2023-05-17T19:42:16.774Z,2.60
2023-05-17T19:44:43.966Z,2.10
2023-05-17T19:47:11.937Z,1.70
2023-05-17T19:49:40.370Z,2.45
2023-05-17T19:52:08.119Z,2.92
2023-05-17T19:54:35.854Z,2.53
2023-05-17T19:57:09.900Z,2.90
2023-05-17T19:59:39.880Z,2.20
2023-05-17T20:02:12.930Z,3.35
2023-05-17T20:04:47.537Z,2.55
2023-05-17T20:07:39.695Z,2.65
2023-05-17T20:10:18.271Z,2.63
2023-05-17T20:12:46.826Z,2.60
2023-05-17T20:18:24.331Z,2.65
2023-05-17T20:21:01.239Z,2.60
2023-05-17T20:23:31.876Z,2.42
2023-05-17T20:26:55.015Z,2.75
2023-05-17T20:29:31.486Z,2.60
2023-05-17T20:32:10.476Z,2.38
2023-05-17T20:34:53.347Z,2.45
2023-05-17T20:38:15.498Z,2.25
2023-05-17T20:41:05.953Z,2.38
2023-05-17T20:44:01.669Z,2.05
2023-05-17T20:46:40.182Z,2.15
2023-05-17T20:49:15.502Z,2.17
2023-05-17T20:55:43.248Z,2.03
2023-05-17T21:01:16.880Z,2.22
2023-05-17T21:03:45.220Z,2.65
2023-05-17T21:06:20.031Z,2.95
2023-05-17T21:09:06.278Z,2.85
2023-05-17T21:11:34.635Z,2.13
2023-05-17T21:14:02.672Z,3.25
2023-05-17T21:16:37.798Z,2.53
2023-05-17T21:19:09.285Z,2.67
2023-05-17T21:21:44.299Z,2.83
2023-05-17T21:24:15.581Z,2.50
2023-05-17T21:26:46.681Z,2.45
2023-05-17T21:29:15.247Z,2.92
2023-05-17T21:31:43.838Z,2.70
2023-05-17T21:34:14.737Z,2.95
2023-05-17T21:36:42.950Z,2.33
2023-05-17T21:39:15.380Z,2.80
2023-05-17T21:41:43.152Z,2.17
2023-05-17T21:44:13.140Z,2.30
2023-05-17T21:46:42.471Z,3.03
2023-05-17T21:49:10.375Z,2.50
2023-05-17T21:51:41.950Z,2.25
2023-05-17T21:54:14.328Z,2.92
2023-05-17T21:56:50.296Z,2.35
2023-05-17T21:59:18.452Z,2.67
2023-05-17T22:01:46.988Z,2.55
2023-05-17T22:04:18.746Z,2.63
2023-05-17T22:06:47.051Z,2.65
2023-05-17T22:09:15.694Z,3.00
2023-05-17T22:11:43.661Z,2.53
2023-05-17T22:14:14.034Z,3.03
2023-05-17T22:16:41.899Z,2.63
2023-05-17T22:19:10.189Z,2.80
2023-05-17T22:21:39.962Z,3.33
2023-05-17T22:24:07.777Z,2.95
2023-05-17T22:26:39.200Z,3.08
2023-05-17T22:29:07.709Z,3.37
2023-05-17T22:31:38.085Z,3.33
2023-05-17T22:34:07.350Z,3.33
2023-05-17T22:36:35.326Z,2.88
2023-05-17T22:39:03.722Z,3.00
2023-05-17T22:41:31.952Z,2.83
2023-05-17T22:44:02.776Z,3.72
2023-05-17T22:46:32.316Z,3.40
2023-05-17T22:48:59.962Z,3.30
2023-05-17T22:51:30.430Z,3.35
2023-05-17T22:53:58.446Z,3.35
2023-05-17T22:56:26.983Z,3.35
2023-05-17T22:58:54.646Z,3.00
2023-05-17T23:01:24.460Z,2.92
2023-05-17T23:03:52.353Z,3.20
2023-05-17T23:06:22.733Z,3.03
2023-05-17T23:08:50.365Z,2.97
2023-05-17T23:11:18.325Z,3.00
2023-05-17T23:13:45.949Z,3.10
2023-05-17T23:16:14.251Z,3.00
2023-05-17T23:18:41.825Z,3.63
2023-05-17T23:21:09.892Z,2.78
2023-05-17T23:23:38.439Z,3.42
2023-05-17T23:26:06.324Z,2.97
2023-05-17T23:28:33.837Z,2.92
2023-05-17T23:31:02.554Z,2.90
2023-05-17T23:33:31.621Z,3.13
2023-05-17T23:35:59.207Z,3.75
2023-05-17T23:38:27.544Z,2.97
2023-05-17T23:40:58.713Z,3.20
2023-05-17T23:43:26.629Z,3.88
2023-05-17T23:45:56.468Z,2.90
2023-05-17T23:48:25.965Z,2.88
2023-05-17T23:50:54.269Z,2.95
2023-05-17T23:53:23.798Z,3.10
2023-05-17T23:55:51.592Z,3.20
2023-05-17T23:58:21.839Z,3.08
